Time;durP1;ratioP1;P1;durP2;ratioP2;P2;SDS_P1;SDS_P2;PMS_P1;PMS_P2;Temp;Humidity;BMP_temperature;BMP_pressure;BME280_temperature;BME280_humidity;BME280_pressure;Samples;Min_cycle;Max_cycle;Signal;HPM_P1;HPM_P2
2021/06/29 00:01:10;;;;;;;18.02;12.27;;;;;;;;;;5042605;28;20037;-69
2021/06/29 00:03:35;;;;;;;18.73;12.05;;;;;;;;;;5045381;28;20096;-69
2021/06/29 00:06:00;;;;;;;17.17;12.10;;;;;;;;;;5046050;28;20044;-69
2021/06/29 00:08:26;;;;;;;24.00;13.50;;;;;;;;;;5043957;28;20504;-69
2021/06/29 00:10:51;;;;;;;17.60;14.50;;;;;;;;;;5042046;28;20040;-69
2021/06/29 00:13:20;;;;;;;14.63;13.07;;;;;;;;;;5047869;28;20086;-69
2021/06/29 00:15:45;;;;;;;18.75;13.10;;;;;;;;;;5040696;28;20361;-69
2021/06/29 00:18:10;;;;;;;15.73;13.68;;;;;;;;;;5039303;28;20026;-69
2021/06/29 00:20:36;;;;;;;15.18;13.60;;;;;;;;;;5047978;28;20039;-72
2021/06/29 00:23:02;;;;;;;15.55;13.95;;;;;;;;;;5040939;28;20025;-69
2021/06/29 00:25:27;;;;;;;16.48;13.90;;;;;;;;;;5042785;28;20025;-69
2021/06/29 00:27:53;;;;;;;19.95;14.52;;;;;;;;;;5042835;28;20477;-69
2021/06/29 00:30:18;;;;;;;20.23;15.38;;;;;;;;;;5040816;28;20457;-68
2021/06/29 00:32:44;;;;;;;19.85;15.35;;;;;;;;;;5048423;28;20029;-69
2021/06/29 00:35:11;;;;;;;29.30;15.43;;;;;;;;;;5041337;28;20024;-68
2021/06/29 00:37:36;;;;;;;18.60;15.75;;;;;;;;;;5036889;28;20036;-69
2021/06/29 00:40:07;;;;;;;20.30;16.38;;;;;;;;;;5035571;28;20041;-69
2021/06/29 00:42:33;;;;;;;22.25;16.30;;;;;;;;;;5041619;28;20056;-69
2021/06/29 00:44:58;;;;;;;20.20;17.98;;;;;;;;;;5045123;28;20401;-69
2021/06/29 00:47:23;;;;;;;22.75;16.88;;;;;;;;;;5045407;28;20036;-69
2021/06/29 00:49:49;;;;;;;26.23;18.90;;;;;;;;;;5043036;28;20074;-69
2021/06/29 00:52:15;;;;;;;23.00;19.13;;;;;;;;;;5042078;28;20103;-69
2021/06/29 00:54:41;;;;;;;29.80;20.80;;;;;;;;;;5046233;28;20025;-69
2021/06/29 00:57:08;;;;;;;28.77;20.45;;;;;;;;;;5045881;28;20366;-69
2021/06/29 00:59:34;;;;;;;28.10;21.02;;;;;;;;;;5041615;28;20029;-69
2021/06/29 01:01:59;;;;;;;28.67;21.85;;;;;;;;;;5042374;28;20029;-69
2021/06/29 01:04:24;;;;;;;28.83;21.23;;;;;;;;;;5041648;28;20025;-69
2021/06/29 01:06:50;;;;;;;27.90;21.17;;;;;;;;;;5043186;28;20028;-69
2021/06/29 01:09:16;;;;;;;28.85;21.85;;;;;;;;;;5040043;28;20024;-69
2021/06/29 01:11:41;;;;;;;27.00;21.95;;;;;;;;;;5035615;28;20437;-69
2021/06/29 01:14:15;;;;;;;26.90;22.23;;;;;;;;;;5041892;28;20033;-69
2021/06/29 01:16:42;;;;;;;24.63;21.35;;;;;;;;;;5042458;28;20025;-69
2021/06/29 01:19:07;;;;;;;29.83;23.48;;;;;;;;;;5044846;28;20039;-69
2021/06/29 01:21:37;;;;;;;38.33;28.52;;;;;;;;;;5043799;28;20029;-69
2021/06/29 01:24:05;;;;;;;40.08;27.25;;;;;;;;;;5040699;28;20115;-70
2021/06/29 01:26:33;;;;;;;39.72;26.83;;;;;;;;;;5042093;28;20617;-69
2021/06/29 01:29:07;;;;;;;35.08;27.90;;;;;;;;;;5039226;28;20025;-69
2021/06/29 01:31:36;;;;;;;35.28;28.23;;;;;;;;;;5041635;28;20022;-70
2021/06/29 01:34:03;;;;;;;50.30;31.55;;;;;;;;;;5039152;28;20029;-69
2021/06/29 01:36:39;;;;;;;47.88;33.85;;;;;;;;;;5044809;28;20068;-69
2021/06/29 01:39:07;;;;;;;40.40;29.50;;;;;;;;;;5045494;28;20037;-69
2021/06/29 01:41:33;;;;;;;39.35;28.23;;;;;;;;;;5037297;28;20062;-69
2021/06/29 01:46:33;;;;;;;35.15;26.27;;;;;;;;;;5039402;28;20029;-69
2021/06/29 01:48:58;;;;;;;42.63;29.40;;;;;;;;;;5036677;28;20037;-69
2021/06/29 01:51:24;;;;;;;37.45;28.40;;;;;;;;;;5040277;28;20441;-69
2021/06/29 01:53:51;;;;;;;37.60;28.42;;;;;;;;;;5040048;28;20048;-68
2021/06/29 01:56:18;;;;;;;39.10;29.08;;;;;;;;;;5047458;28;20040;-70
2021/06/29 01:58:53;;;;;;;38.75;27.00;;;;;;;;;;5046018;28;21377;-69
2021/06/29 02:01:19;;;;;;;43.58;28.38;;;;;;;;;;5045812;28;20082;-68
2021/06/29 02:03:45;;;;;;;34.10;27.60;;;;;;;;;;5044407;28;20049;-68
2021/06/29 02:06:10;;;;;;;36.78;27.52;;;;;;;;;;5041378;28;20065;-69
2021/06/29 02:08:35;;;;;;;43.97;29.15;;;;;;;;;;5040122;28;20439;-71
2021/06/29 02:11:01;;;;;;;40.30;29.42;;;;;;;;;;5045381;28;20037;-68
2021/06/29 02:13:26;;;;;;;41.75;29.83;;;;;;;;;;5041787;28;20474;-68
2021/06/29 02:15:52;;;;;;;40.55;31.05;;;;;;;;;;5044621;28;20032;-71
2021/06/29 02:18:17;;;;;;;44.90;32.65;;;;;;;;;;5040522;28;20037;-68
2021/06/29 02:20:43;;;;;;;48.60;34.72;;;;;;;;;;5036457;28;20496;-68
2021/06/29 02:23:09;;;;;;;49.38;35.08;;;;;;;;;;5046203;28;20029;-68
2021/06/29 02:25:34;;;;;;;51.08;36.08;;;;;;;;;;5042305;28;20032;-69
2021/06/29 02:27:59;;;;;;;45.65;36.88;;;;;;;;;;5045341;28;20045;-68
2021/06/29 02:30:25;;;;;;;55.10;39.38;;;;;;;;;;5044801;28;20152;-68
2021/06/29 02:32:50;;;;;;;58.47;42.92;;;;;;;;;;5039639;28;20029;-69
2021/06/29 02:35:16;;;;;;;64.55;41.60;;;;;;;;;;5048139;28;20036;-70
2021/06/29 02:37:42;;;;;;;54.30;38.63;;;;;;;;;;5043761;28;20021;-68
2021/06/29 02:40:08;;;;;;;71.88;40.80;;;;;;;;;;5044333;28;20029;-69
2021/06/29 02:42:34;;;;;;;60.03;43.08;;;;;;;;;;5044503;28;20036;-69
2021/06/29 02:45:05;;;;;;;68.28;43.70;;;;;;;;;;5040101;28;20033;-68
2021/06/29 02:47:31;;;;;;;69.65;45.80;;;;;;;;;;5043187;28;20563;-68
2021/06/29 02:49:57;;;;;;;74.25;45.20;;;;;;;;;;5044268;28;20112;-69
2021/06/29 02:52:22;;;;;;;68.68;42.08;;;;;;;;;;5040097;28;20111;-67
2021/06/29 02:54:47;;;;;;;60.85;41.50;;;;;;;;;;5043891;28;20385;-68
2021/06/29 02:57:12;;;;;;;61.08;41.35;;;;;;;;;;5044100;28;20028;-68
2021/06/29 02:59:38;;;;;;;63.65;39.72;;;;;;;;;;5046884;28;20585;-67
2021/06/29 03:02:03;;;;;;;61.78;40.35;;;;;;;;;;5044815;28;20112;-67
2021/06/29 03:04:29;;;;;;;55.78;36.13;;;;;;;;;;5045462;28;20033;-68
2021/06/29 03:06:54;;;;;;;59.85;37.05;;;;;;;;;;5049345;28;20033;-67
2021/06/29 03:09:19;;;;;;;56.83;36.83;;;;;;;;;;5045824;28;20486;-68
2021/06/29 03:11:44;;;;;;;58.05;35.17;;;;;;;;;;5043564;28;20117;-68
2021/06/29 03:14:10;;;;;;;51.33;34.80;;;;;;;;;;5039753;28;20176;-67
2021/06/29 03:16:35;;;;;;;54.22;33.42;;;;;;;;;;5044195;28;20543;-68
2021/06/29 03:19:01;;;;;;;58.92;34.22;;;;;;;;;;5043461;28;20559;-67
2021/06/29 03:21:26;;;;;;;45.65;31.48;;;;;;;;;;5040836;28;20028;-67
2021/06/29 03:23:52;;;;;;;50.60;31.20;;;;;;;;;;5040159;28;20558;-67
2021/06/29 03:26:17;;;;;;;43.08;30.55;;;;;;;;;;5048595;28;20037;-68
2021/06/29 03:28:42;;;;;;;45.03;29.52;;;;;;;;;;5043132;28;20067;-68
2021/06/29 03:31:08;;;;;;;52.20;32.05;;;;;;;;;;5044735;28;20036;-69
2021/06/29 03:33:34;;;;;;;46.63;33.15;;;;;;;;;;5043806;28;20490;-68
2021/06/29 03:35:59;;;;;;;54.15;32.67;;;;;;;;;;5050291;28;20075;-69
2021/06/29 03:38:25;;;;;;;61.15;34.63;;;;;;;;;;5048093;28;20040;-68
2021/06/29 03:40:51;;;;;;;48.50;33.97;;;;;;;;;;5038930;28;20025;-69
2021/06/29 03:43:16;;;;;;;54.33;34.85;;;;;;;;;;5046049;28;20474;-68
2021/06/29 03:45:41;;;;;;;47.88;32.45;;;;;;;;;;5044362;28;20025;-67
2021/06/29 03:48:07;;;;;;;57.15;32.85;;;;;;;;;;5043159;28;20056;-68
2021/06/29 03:50:32;;;;;;;47.33;33.08;;;;;;;;;;5043943;28;20437;-69
2021/06/29 03:52:57;;;;;;;54.38;34.55;;;;;;;;;;5044791;28;20501;-68
2021/06/29 03:55:23;;;;;;;55.05;35.70;;;;;;;;;;5045673;28;20517;-68
2021/06/29 03:57:49;;;;;;;52.33;34.15;;;;;;;;;;5038740;28;20025;-68
2021/06/29 04:00:14;;;;;;;48.70;34.40;;;;;;;;;;5040227;28;20512;-70
2021/06/29 04:02:40;;;;;;;55.92;35.13;;;;;;;;;;5041583;28;20064;-69
2021/06/29 04:05:07;;;;;;;48.33;32.30;;;;;;;;;;5037298;28;20021;-69
2021/06/29 04:07:32;;;;;;;50.90;35.08;;;;;;;;;;5040576;28;20021;-69
2021/06/29 04:09:58;;;;;;;43.72;32.88;;;;;;;;;;5041279;28;20052;-69
2021/06/29 04:12:23;;;;;;;52.58;35.78;;;;;;;;;;5046119;28;20397;-69
2021/06/29 04:14:48;;;;;;;51.33;33.10;;;;;;;;;;5043898;28;20087;-70
2021/06/29 04:17:14;;;;;;;47.00;34.17;;;;;;;;;;5046398;28;20065;-70
2021/06/29 04:19:40;;;;;;;53.45;33.38;;;;;;;;;;5036442;28;20044;-70
2021/06/29 04:22:09;;;;;;;55.33;35.28;;;;;;;;;;5039337;28;20441;-70
2021/06/29 04:24:35;;;;;;;49.35;33.80;;;;;;;;;;5035353;28;20057;-70
2021/06/29 04:27:00;;;;;;;53.80;34.42;;;;;;;;;;5039359;28;20509;-71
2021/06/29 04:29:26;;;;;;;50.17;33.60;;;;;;;;;;5041796;28;20481;-70
2021/06/29 04:31:51;;;;;;;46.80;34.28;;;;;;;;;;5042716;28;20437;-70
2021/06/29 04:34:16;;;;;;;51.15;36.53;;;;;;;;;;5045863;28;20037;-70
2021/06/29 04:36:42;;;;;;;57.90;36.88;;;;;;;;;;5039777;28;20535;-70
2021/06/29 04:39:07;;;;;;;53.45;35.20;;;;;;;;;;5040792;28;20026;-70
2021/06/29 04:41:33;;;;;;;47.35;34.67;;;;;;;;;;5043673;28;20025;-71
2021/06/29 04:43:59;;;;;;;44.28;32.25;;;;;;;;;;5047880;28;20017;-70
2021/06/29 04:46:24;;;;;;;51.50;34.13;;;;;;;;;;5049056;28;20021;-70
2021/06/29 04:48:50;;;;;;;56.25;36.30;;;;;;;;;;5042304;28;20485;-70
2021/06/29 04:51:15;;;;;;;48.03;35.47;;;;;;;;;;5039255;28;20437;-70
2021/06/29 04:53:41;;;;;;;51.08;35.65;;;;;;;;;;5043082;28;20048;-70
2021/06/29 04:56:18;;;;;;;46.15;33.42;;;;;;;;;;5035240;28;20052;-70
2021/06/29 04:58:44;;;;;;;47.65;35.13;;;;;;;;;;5043928;28;20021;-70
2021/06/29 05:01:09;;;;;;;53.72;37.25;;;;;;;;;;5035324;28;20029;-70
2021/06/29 05:03:35;;;;;;;61.92;45.80;;;;;;;;;;5041670;28;20116;-70
2021/06/29 05:06:00;;;;;;;56.35;37.28;;;;;;;;;;5035698;28;20386;-71
2021/06/29 05:08:25;;;;;;;53.88;36.80;;;;;;;;;;5040527;28;20029;-70
2021/06/29 05:10:50;;;;;;;49.40;35.70;;;;;;;;;;5044273;28;20393;-70
2021/06/29 05:13:16;;;;;;;45.38;34.55;;;;;;;;;;5043692;28;20029;-71
2021/06/29 05:15:41;;;;;;;52.58;35.95;;;;;;;;;;5042197;28;20056;-71
2021/06/29 05:18:07;;;;;;;61.20;40.15;;;;;;;;;;5045864;28;20025;-72
2021/06/29 05:20:32;;;;;;;55.22;35.83;;;;;;;;;;5036021;28;20071;-71
2021/06/29 05:22:58;;;;;;;56.95;40.53;;;;;;;;;;5041963;28;20067;-71
2021/06/29 05:25:23;;;;;;;61.42;39.75;;;;;;;;;;5036500;28;20025;-70
2021/06/29 05:27:48;;;;;;;60.88;38.55;;;;;;;;;;5033751;28;20020;-71
2021/06/29 05:30:15;;;;;;;56.05;39.47;;;;;;;;;;5037224;28;20490;-71
2021/06/29 05:32:40;;;;;;;55.58;37.75;;;;;;;;;;5040529;28;20033;-71
2021/06/29 05:35:07;;;;;;;64.82;39.05;;;;;;;;;;5038681;28;20036;-71
2021/06/29 05:37:32;;;;;;;57.42;37.75;;;;;;;;;;5045933;28;20021;-71
2021/06/29 05:39:58;;;;;;;59.72;39.58;;;;;;;;;;5037498;28;20033;-70
2021/06/29 05:42:23;;;;;;;57.38;38.35;;;;;;;;;;5041688;28;20071;-71
2021/06/29 05:44:48;;;;;;;56.03;38.97;;;;;;;;;;5039624;28;20073;-71
2021/06/29 05:47:20;;;;;;;63.60;41.20;;;;;;;;;;5044567;28;20043;-70
2021/06/29 05:49:45;;;;;;;55.25;40.30;;;;;;;;;;5044276;28;20056;-71
2021/06/29 05:52:11;;;;;;;65.38;40.67;;;;;;;;;;5045418;28;20065;-71
2021/06/29 05:54:36;;;;;;;65.78;43.03;;;;;;;;;;5046399;28;20029;-71
2021/06/29 05:57:01;;;;;;;57.72;40.83;;;;;;;;;;5041698;28;20475;-71
2021/06/29 05:59:27;;;;;;;69.57;43.70;;;;;;;;;;5049168;28;20024;-71
2021/06/29 06:01:53;;;;;;;64.65;42.25;;;;;;;;;;5045528;28;20033;-71
2021/06/29 06:04:18;;;;;;;62.55;42.67;;;;;;;;;;5039403;28;20032;-71
2021/06/29 06:06:44;;;;;;;64.18;42.63;;;;;;;;;;5044374;28;20017;-71
2021/06/29 06:09:09;;;;;;;68.15;42.78;;;;;;;;;;5043681;28;20017;-71
2021/06/29 06:11:35;;;;;;;56.92;41.53;;;;;;;;;;5046525;28;20538;-71
2021/06/29 06:14:00;;;;;;;76.72;44.45;;;;;;;;;;5045908;28;20116;-71
2021/06/29 06:16:25;;;;;;;57.17;43.80;;;;;;;;;;5040522;28;20029;-71
2021/06/29 06:18:51;;;;;;;63.65;42.72;;;;;;;;;;5043899;28;20029;-70
2021/06/29 06:21:16;;;;;;;65.60;42.70;;;;;;;;;;5044489;28;20359;-70
2021/06/29 06:23:41;;;;;;;58.78;42.75;;;;;;;;;;5037853;28;20397;-70
2021/06/29 06:26:07;;;;;;;61.22;42.72;;;;;;;;;;5042999;28;20109;-71
2021/06/29 06:28:32;;;;;;;62.40;42.45;;;;;;;;;;5043509;28;20095;-71
2021/06/29 06:30:58;;;;;;;63.67;41.63;;;;;;;;;;5048021;28;20116;-71
2021/06/29 06:33:23;;;;;;;54.67;41.75;;;;;;;;;;5043902;28;20508;-71
2021/06/29 06:35:49;;;;;;;63.45;41.28;;;;;;;;;;5045080;28;20031;-71
2021/06/29 06:38:14;;;;;;;54.78;41.10;;;;;;;;;;5037205;28;20552;-72
2021/06/29 06:40:39;;;;;;;51.58;39.90;;;;;;;;;;5050318;28;20361;-71
2021/06/29 06:43:05;;;;;;;52.72;37.40;;;;;;;;;;5052196;28;20444;-71
2021/06/29 06:45:30;;;;;;;59.22;39.92;;;;;;;;;;5045292;28;20033;-71
2021/06/29 06:47:55;;;;;;;53.28;39.30;;;;;;;;;;5045649;28;20048;-71
2021/06/29 06:50:22;;;;;;;53.83;38.55;;;;;;;;;;5041248;28;20113;-71
2021/06/29 06:52:48;;;;;;;52.03;39.17;;;;;;;;;;5044089;28;20028;-71
2021/06/29 06:55:13;;;;;;;51.33;37.85;;;;;;;;;;5045119;28;20152;-71
2021/06/29 06:57:41;;;;;;;49.42;38.83;;;;;;;;;;5042555;28;20112;-71
2021/06/29 07:00:08;;;;;;;49.63;40.33;;;;;;;;;;5038742;28;20032;-71
2021/06/29 07:02:33;;;;;;;46.90;37.50;;;;;;;;;;5038180;28;20044;-71
2021/06/29 07:04:58;;;;;;;51.40;38.75;;;;;;;;;;5043634;28;20072;-71
2021/06/29 07:07:24;;;;;;;47.65;38.10;;;;;;;;;;5041768;28;20478;-71
2021/06/29 07:09:49;;;;;;;45.90;37.17;;;;;;;;;;5043455;28;20041;-72
2021/06/29 07:12:14;;;;;;;49.95;38.28;;;;;;;;;;5048878;28;20036;-72
2021/06/29 07:14:40;;;;;;;39.28;33.78;;;;;;;;;;5045049;28;20467;-71
2021/06/29 07:17:05;;;;;;;40.15;35.30;;;;;;;;;;5044172;28;20032;-71
2021/06/29 07:19:31;;;;;;;42.92;34.95;;;;;;;;;;5043735;28;20025;-71
2021/06/29 07:21:56;;;;;;;42.25;34.58;;;;;;;;;;5047300;28;20024;-71
2021/06/29 07:24:21;;;;;;;43.05;34.20;;;;;;;;;;5044409;28;20428;-71
2021/06/29 07:26:47;;;;;;;36.78;32.17;;;;;;;;;;5048428;28;20027;-71
2021/06/29 07:29:12;;;;;;;35.33;29.23;;;;;;;;;;5045723;28;20021;-71
2021/06/29 07:31:38;;;;;;;36.80;28.38;;;;;;;;;;5041149;28;20120;-70
2021/06/29 07:34:03;;;;;;;33.00;27.50;;;;;;;;;;5042464;28;20112;-71
2021/06/29 07:36:28;;;;;;;33.60;27.90;;;;;;;;;;5043078;28;20068;-71
2021/06/29 07:38:55;;;;;;;32.20;28.73;;;;;;;;;;5042329;28;20067;-70
2021/06/29 07:41:21;;;;;;;31.75;28.33;;;;;;;;;;5044600;28;20053;-70
2021/06/29 07:43:47;;;;;;;31.83;28.50;;;;;;;;;;5044138;28;20109;-70
2021/06/29 07:46:12;;;;;;;32.15;28.65;;;;;;;;;;5041846;28;20059;-72
2021/06/29 07:48:37;;;;;;;31.23;27.92;;;;;;;;;;5044883;28;20025;-72
2021/06/29 07:51:05;;;;;;;31.83;28.08;;;;;;;;;;5039818;28;20029;-71
2021/06/29 07:53:31;;;;;;;31.65;28.15;;;;;;;;;;5044202;28;20354;-70
2021/06/29 07:55:56;;;;;;;36.08;25.77;;;;;;;;;;5039570;28;20056;-70
2021/06/29 07:58:21;;;;;;;26.50;23.80;;;;;;;;;;5042885;28;20036;-70
2021/06/29 08:00:47;;;;;;;27.95;25.25;;;;;;;;;;5045638;28;20020;-70
2021/06/29 08:03:12;;;;;;;28.63;25.55;;;;;;;;;;5044272;28;20017;-70
2021/06/29 08:05:37;;;;;;;30.33;27.10;;;;;;;;;;5042470;28;20394;-71
2021/06/29 08:08:08;;;;;;;32.08;28.63;;;;;;;;;;5041587;28;20109;-71
2021/06/29 08:10:34;;;;;;;34.45;30.75;;;;;;;;;;5045207;28;20485;-70
2021/06/29 08:12:59;;;;;;;36.88;33.03;;;;;;;;;;5043639;28;20037;-70
2021/06/29 08:15:26;;;;;;;36.03;32.28;;;;;;;;;;5037575;28;20045;-70
2021/06/29 08:17:52;;;;;;;35.95;32.00;;;;;;;;;;5040566;28;20025;-70
2021/06/29 08:20:17;;;;;;;37.15;33.05;;;;;;;;;;5046416;28;20385;-70
2021/06/29 08:22:43;;;;;;;36.67;32.83;;;;;;;;;;5042696;28;20047;-70
2021/06/29 08:25:10;;;;;;;36.25;32.38;;;;;;;;;;5046497;28;20033;-70
2021/06/29 08:27:37;;;;;;;38.78;31.60;;;;;;;;;;5042181;28;20071;-70
2021/06/29 08:30:04;;;;;;;33.65;29.75;;;;;;;;;;5042070;28;20033;-69
2021/06/29 08:32:29;;;;;;;37.15;30.80;;;;;;;;;;5044586;28;20028;-69
2021/06/29 08:34:54;;;;;;;35.03;30.63;;;;;;;;;;5041042;28;20112;-69
2021/06/29 08:37:21;;;;;;;38.40;30.88;;;;;;;;;;5042705;28;20039;-69
2021/06/29 08:39:47;;;;;;;37.92;31.27;;;;;;;;;;5044330;28;20029;-69
2021/06/29 08:42:13;;;;;;;40.72;32.55;;;;;;;;;;5044315;28;20032;-69
2021/06/29 08:44:39;;;;;;;38.97;31.13;;;;;;;;;;5044976;28;20354;-68
2021/06/29 08:47:08;;;;;;;40.97;31.65;;;;;;;;;;5043142;28;20039;-68
2021/06/29 08:49:34;;;;;;;43.15;33.38;;;;;;;;;;5044265;28;20508;-68
2021/06/29 08:51:59;;;;;;;41.53;32.58;;;;;;;;;;5041135;28;20036;-69
2021/06/29 08:54:26;;;;;;;46.78;35.47;;;;;;;;;;5042233;28;20569;-68
2021/06/29 08:56:51;;;;;;;45.28;34.58;;;;;;;;;;5040902;28;20477;-68
2021/06/29 08:59:17;;;;;;;42.00;35.22;;;;;;;;;;5042490;28;20024;-70
2021/06/29 09:01:42;;;;;;;45.58;35.05;;;;;;;;;;5042583;28;20026;-69
2021/06/29 09:04:07;;;;;;;45.88;35.95;;;;;;;;;;5038547;28;20032;-68
2021/06/29 09:06:39;;;;;;;47.40;37.83;;;;;;;;;;5041745;28;20025;-70
2021/06/29 09:09:22;;;;;;;51.40;38.25;;;;;;;;;;5037608;28;20083;-67
2021/06/29 09:11:47;;;;;;;48.20;36.47;;;;;;;;;;5042401;28;20033;-68
2021/06/29 09:14:16;;;;;;;48.28;36.67;;;;;;;;;;5044583;28;20406;-67
2021/06/29 09:16:41;;;;;;;51.40;38.08;;;;;;;;;;5041369;28;20034;-67
2021/06/29 09:19:07;;;;;;;51.05;38.05;;;;;;;;;;5038910;28;20051;-68
2021/06/29 09:21:36;;;;;;;53.72;38.92;;;;;;;;;;5035826;28;20029;-67
2021/06/29 09:24:03;;;;;;;49.50;39.78;;;;;;;;;;5041733;28;20029;-67
2021/06/29 09:26:29;;;;;;;46.70;36.63;;;;;;;;;;5040156;28;20032;-67
2021/06/29 09:29:00;;;;;;;58.10;38.33;;;;;;;;;;5041925;28;20026;-67
2021/06/29 09:31:31;;;;;;;41.63;34.63;;;;;;;;;;5041629;28;20109;-68
2021/06/29 09:34:07;;;;;;;36.45;32.30;;;;;;;;;;5043396;28;20504;-67
2021/06/29 09:36:35;;;;;;;36.95;32.80;;;;;;;;;;5036589;28;20021;-67
2021/06/29 09:39:08;;;;;;;37.90;31.63;;;;;;;;;;5036721;28;20041;-68
2021/06/29 09:41:36;;;;;;;41.72;32.90;;;;;;;;;;5041183;28;20101;-68
2021/06/29 09:44:12;;;;;;;36.50;32.50;;;;;;;;;;5046599;28;20386;-67
2021/06/29 09:46:40;;;;;;;36.72;31.40;;;;;;;;;;5045105;28;20466;-68
2021/06/29 09:49:13;;;;;;;35.95;31.17;;;;;;;;;;5040189;28;20150;-69
2021/06/29 09:51:39;;;;;;;35.75;30.27;;;;;;;;;;5043206;28;20041;-67
2021/06/29 09:54:10;;;;;;;36.55;31.02;;;;;;;;;;5043649;28;20151;-68
2021/06/29 09:56:39;;;;;;;37.08;32.05;;;;;;;;;;5045826;28;20026;-67
2021/06/29 09:59:11;;;;;;;40.05;30.23;;;;;;;;;;5041825;28;20025;-68
2021/06/29 10:01:36;;;;;;;42.13;30.05;;;;;;;;;;5038303;28;20049;-67
2021/06/29 10:04:03;;;;;;;36.95;29.75;;;;;;;;;;5044302;28;20038;-68
2021/06/29 10:06:31;;;;;;;40.25;30.63;;;;;;;;;;5041655;28;20044;-68
2021/06/29 10:09:04;;;;;;;35.42;30.10;;;;;;;;;;5039358;28;20029;-67
2021/06/29 10:11:32;;;;;;;37.97;29.52;;;;;;;;;;5043460;28;20029;-67
2021/06/29 10:14:09;;;;;;;41.42;30.38;;;;;;;;;;5043124;28;20032;-67
2021/06/29 10:16:43;;;;;;;37.28;30.13;;;;;;;;;;5041410;28;20025;-68
2021/06/29 10:21:40;;;;;;;39.67;31.27;;;;;;;;;;5041334;28;20033;-68
2021/06/29 10:24:08;;;;;;;43.58;30.45;;;;;;;;;;5037883;28;20029;-67
2021/06/29 10:26:38;;;;;;;40.40;29.08;;;;;;;;;;5042040;28;20087;-68
2021/06/29 10:29:05;;;;;;;38.25;29.55;;;;;;;;;;5039173;28;20189;-68
2021/06/29 10:31:33;;;;;;;32.00;24.40;;;;;;;;;;5042157;28;20030;-68
2021/06/29 10:34:01;;;;;;;30.65;21.23;;;;;;;;;;5044093;28;20037;-68
2021/06/29 10:36:28;;;;;;;27.23;21.58;;;;;;;;;;5043856;28;20036;-69
2021/06/29 10:38:56;;;;;;;26.30;20.10;;;;;;;;;;5049447;28;20033;-68
2021/06/29 10:41:24;;;;;;;25.90;19.08;;;;;;;;;;5043511;28;20075;-68
2021/06/29 10:43:50;;;;;;;17.52;13.80;;;;;;;;;;5046045;28;20021;-68
2021/06/29 10:46:27;;;;;;;11.68;10.25;;;;;;;;;;5042176;28;20021;-67
2021/06/29 10:48:54;;;;;;;12.70;10.70;;;;;;;;;;5043900;28;20341;-67
2021/06/29 10:51:36;;;;;;;14.43;11.30;;;;;;;;;;5043605;28;20017;-69
2021/06/29 10:54:02;;;;;;;12.80;9.57;;;;;;;;;;5044741;28;20036;-68
2021/06/29 10:56:56;;;;;;;10.50;9.40;;;;;;;;;;5048145;28;20028;-68
2021/06/29 10:59:31;;;;;;;9.95;8.70;;;;;;;;;;5044638;28;20029;-67
2021/06/29 11:01:57;;;;;;;9.70;8.43;;;;;;;;;;5047986;28;20022;-67
2021/06/29 11:04:47;;;;;;;9.30;8.40;;;;;;;;;;5044092;28;20083;-68
2021/06/29 11:07:30;;;;;;;11.05;9.02;;;;;;;;;;5041518;28;20025;-68
2021/06/29 11:10:00;;;;;;;12.25;9.27;;;;;;;;;;5044614;28;20033;-68
2021/06/29 11:12:27;;;;;;;10.18;9.10;;;;;;;;;;5042802;28;20087;-68
2021/06/29 11:14:56;;;;;;;12.07;9.05;;;;;;;;;;5045208;28;20029;-68
2021/06/29 11:17:23;;;;;;;12.05;9.25;;;;;;;;;;5049221;28;20026;-68
2021/06/29 11:20:00;;;;;;;11.00;9.70;;;;;;;;;;5044695;28;20511;-67
2021/06/29 11:22:47;;;;;;;10.48;9.38;;;;;;;;;;5043415;28;20035;-67
2021/06/29 11:25:12;;;;;;;11.32;9.88;;;;;;;;;;5044552;28;20607;-67
2021/06/29 11:28:01;;;;;;;9.48;8.48;;;;;;;;;;5035815;28;20103;-67
2021/06/29 11:31:04;;;;;;;9.30;8.38;;;;;;;;;;5047290;28;20033;-67
2021/06/29 11:34:03;;;;;;;8.65;7.75;;;;;;;;;;5050165;28;20029;-67
2021/06/29 11:36:29;;;;;;;8.60;7.57;;;;;;;;;;5043738;28;20040;-67
2021/06/29 11:39:00;;;;;;;9.50;8.30;;;;;;;;;;5044468;28;20033;-67
2021/06/29 11:41:25;;;;;;;8.30;7.45;;;;;;;;;;5041060;28;20025;-67
2021/06/29 11:43:58;;;;;;;7.22;6.32;;;;;;;;;;5039863;28;20040;-66
2021/06/29 11:46:48;;;;;;;9.60;6.65;;;;;;;;;;5046271;28;20029;-66
2021/06/29 11:49:15;;;;;;;9.35;7.03;;;;;;;;;;5044056;28;20021;-67
2021/06/29 11:51:50;;;;;;;7.15;6.45;;;;;;;;;;5047056;28;20113;-67
2021/06/29 11:54:35;;;;;;;8.93;8.02;;;;;;;;;;5040813;28;20028;-67
2021/06/29 11:57:29;;;;;;;8.73;7.82;;;;;;;;;;5041799;28;20052;-67
2021/06/29 11:59:59;;;;;;;10.32;8.93;;;;;;;;;;5045039;28;20025;-67
2021/06/29 12:02:27;;;;;;;11.55;8.48;;;;;;;;;;5041973;28;20120;-66
2021/06/29 12:05:07;;;;;;;11.20;9.80;;;;;;;;;;5041843;28;20074;-67
2021/06/29 12:07:39;;;;;;;10.75;9.63;;;;;;;;;;5042419;28;20116;-68
2021/06/29 12:10:16;;;;;;;11.50;9.20;;;;;;;;;;5040490;28;20043;-68
2021/06/29 12:12:56;;;;;;;11.27;9.80;;;;;;;;;;5044976;28;20111;-67
2021/06/29 12:15:26;;;;;;;14.20;10.68;;;;;;;;;;5042847;28;20025;-68
2021/06/29 12:18:00;;;;;;;13.70;10.18;;;;;;;;;;5042769;28;20029;-68
2021/06/29 12:20:40;;;;;;;11.65;9.57;;;;;;;;;;5035064;28;20478;-68
2021/06/29 12:23:08;;;;;;;11.73;8.93;;;;;;;;;;5040971;28;20026;-68
2021/06/29 12:25:43;;;;;;;19.35;11.07;;;;;;;;;;5042822;28;20029;-68
2021/06/29 12:28:11;;;;;;;16.23;11.80;;;;;;;;;;5044967;28;20091;-69
2021/06/29 12:30:42;;;;;;;17.27;13.35;;;;;;;;;;5045239;28;20108;-68
2021/06/29 12:33:20;;;;;;;16.98;14.50;;;;;;;;;;5045157;28;20033;-67
2021/06/29 12:35:49;;;;;;;21.20;15.32;;;;;;;;;;5043721;28;20029;-66
2021/06/29 12:38:18;;;;;;;20.17;14.82;;;;;;;;;;5037251;28;20037;-67
2021/06/29 12:40:48;;;;;;;20.23;15.48;;;;;;;;;;5048912;28;20056;-67
2021/06/29 12:43:18;;;;;;;19.25;16.30;;;;;;;;;;5040574;28;20537;-67
2021/06/29 12:45:43;;;;;;;22.50;18.02;;;;;;;;;;5039763;28;20039;-67
2021/06/29 12:48:09;;;;;;;26.05;20.08;;;;;;;;;;5041987;28;20025;-68
2021/06/29 12:50:37;;;;;;;25.27;20.67;;;;;;;;;;5040832;28;20103;-68
2021/06/29 12:53:03;;;;;;;26.60;21.13;;;;;;;;;;5042576;28;20025;-68
2021/06/29 12:55:30;;;;;;;28.77;20.10;;;;;;;;;;5037434;28;20025;-67
2021/06/29 12:58:10;;;;;;;22.08;19.70;;;;;;;;;;5042129;28;20021;-67
2021/06/29 13:00:41;;;;;;;21.80;16.58;;;;;;;;;;5041390;28;20032;-67
2021/06/29 13:03:07;;;;;;;19.45;15.63;;;;;;;;;;5046906;28;20063;-67
2021/06/29 13:05:32;;;;;;;19.77;15.18;;;;;;;;;;5040159;28;20438;-67
2021/06/29 13:08:15;;;;;;;17.33;15.23;;;;;;;;;;5038799;28;20023;-67
2021/06/29 13:10:42;;;;;;;19.33;13.85;;;;;;;;;;5039341;28;20024;-67
2021/06/29 13:13:15;;;;;;;18.85;15.20;;;;;;;;;;5047609;28;20035;-67
2021/06/29 13:15:40;;;;;;;19.10;13.60;;;;;;;;;;5040292;28;20021;-67
2021/06/29 13:18:06;;;;;;;18.25;13.70;;;;;;;;;;5041918;28;20029;-67
2021/06/29 13:20:33;;;;;;;14.32;12.48;;;;;;;;;;5036559;28;20036;-68
2021/06/29 13:22:58;;;;;;;21.15;12.50;;;;;;;;;;5040932;28;20029;-68
2021/06/29 13:25:35;;;;;;;18.35;14.20;;;;;;;;;;5047300;28;20095;-67
2021/06/29 13:28:11;;;;;;;19.40;12.98;;;;;;;;;;5041427;28;20017;-67
2021/06/29 13:30:41;;;;;;;15.57;13.13;;;;;;;;;;5043668;28;20040;-67
2021/06/29 13:33:08;;;;;;;16.77;13.63;;;;;;;;;;5042485;28;20028;-67
2021/06/29 13:35:34;;;;;;;17.35;13.38;;;;;;;;;;5043939;28;20390;-67
2021/06/29 13:38:00;;;;;;;16.08;13.15;;;;;;;;;;5040722;28;20382;-67
2021/06/29 13:40:32;;;;;;;16.23;13.70;;;;;;;;;;5041457;28;20039;-67
2021/06/29 13:43:13;;;;;;;17.60;14.10;;;;;;;;;;5035411;28;20477;-68
2021/06/29 13:45:43;;;;;;;19.35;14.15;;;;;;;;;;5036239;28;20488;-67
2021/06/29 13:48:10;;;;;;;20.55;15.05;;;;;;;;;;5043252;28;20025;-66
2021/06/29 13:50:40;;;;;;;20.80;13.77;;;;;;;;;;5040345;28;20422;-68
2021/06/29 13:53:08;;;;;;;16.52;14.40;;;;;;;;;;5038810;28;20036;-68
2021/06/29 13:55:55;;;;;;;20.38;14.43;;;;;;;;;;5043511;28;20051;-68
2021/06/29 13:58:22;;;;;;;18.60;14.43;;;;;;;;;;5047617;28;20501;-68
2021/06/29 14:00:50;;;;;;;16.33;13.70;;;;;;;;;;5041524;28;20083;-67
2021/06/29 14:03:25;;;;;;;18.52;14.55;;;;;;;;;;5043294;28;20033;-68
2021/06/29 14:05:52;;;;;;;15.80;13.25;;;;;;;;;;5042992;28;20035;-67
2021/06/29 14:08:23;;;;;;;19.35;13.98;;;;;;;;;;5048507;28;20033;-68
2021/06/29 14:10:55;;;;;;;17.65;12.30;;;;;;;;;;5042536;28;20064;-68
2021/06/29 14:13:28;;;;;;;14.50;11.95;;;;;;;;;;5045505;28;20036;-68
2021/06/29 14:15:54;;;;;;;17.38;11.48;;;;;;;;;;5047544;28;20029;-68
2021/06/29 14:18:20;;;;;;;15.32;12.18;;;;;;;;;;5047760;28;20047;-68
2021/06/29 14:20:46;;;;;;;12.23;10.23;;;;;;;;;;5045824;28;20486;-68
2021/06/29 14:23:11;;;;;;;11.43;9.75;;;;;;;;;;5047169;28;20041;-69
2021/06/29 14:25:36;;;;;;;13.48;10.32;;;;;;;;;;5053432;28;20031;-73
2021/06/29 14:28:03;;;;;;;11.02;9.52;;;;;;;;;;5041426;28;20017;-69